createdAt,value
2023-05-14T00:02:33.541Z,100904.22
2023-05-14T00:05:36.168Z,100899.78
2023-05-14T00:08:38.534Z,100894.16
2023-05-14T00:11:41.379Z,100882.13
2023-05-14T00:14:43.791Z,100876.09
2023-05-14T00:17:46.503Z,100877.75
2023-05-14T00:20:49.370Z,100899.16
2023-05-14T00:23:51.750Z,100879.91
2023-05-14T00:26:54.430Z,100882.59
2023-05-14T00:29:56.942Z,100881.63
2023-05-14T00:32:59.451Z,100877.25
2023-05-14T00:36:01.912Z,100877.44
2023-05-14T00:39:04.765Z,100882.28
2023-05-14T00:42:07.403Z,100875.25
2023-05-14T00:45:10.298Z,100880.13
2023-05-14T00:48:13.984Z,100876.31
2023-05-14T00:51:17.757Z,100884.53
2023-05-14T00:54:21.163Z,100866.91
2023-05-14T00:57:23.678Z,100889.41
2023-05-14T01:00:27.690Z,100882.41
2023-05-14T01:03:31.911Z,100889.63
2023-05-14T01:07:00.077Z,100894.81
2023-05-14T01:10:15.417Z,100881.25
2023-05-14T01:13:56.056Z,100881.03
2023-05-14T01:17:01.398Z,100856.16
2023-05-14T01:20:04.485Z,100841.50
2023-05-14T01:23:06.979Z,100844.53
2023-05-14T01:26:09.638Z,100847.56
2023-05-14T01:29:22.338Z,100847.75
2023-05-14T01:32:26.005Z,100844.75
2023-05-14T01:35:30.168Z,100838.75
2023-05-14T01:38:34.163Z,100839.94
2023-05-14T01:41:39.429Z,100840.34
2023-05-14T01:44:42.480Z,100817.88
2023-05-14T01:47:45.035Z,100813.88
2023-05-14T01:50:47.636Z,100824.31
2023-05-14T01:53:50.067Z,100803.06
2023-05-14T01:56:52.559Z,100801.06
2023-05-14T01:59:55.035Z,100794.06
2023-05-14T02:02:57.536Z,100803.28
2023-05-14T02:05:59.969Z,100785.03
2023-05-14T02:09:04.320Z,100804.75
2023-05-14T02:12:08.743Z,100789.47
2023-05-14T02:15:11.533Z,100791.69
2023-05-14T02:18:14.127Z,100799.75
2023-05-14T02:21:16.618Z,100778.25
2023-05-14T02:24:19.062Z,100773.44
2023-05-14T02:27:21.885Z,100762.00
2023-05-14T02:30:24.662Z,100779.06
2023-05-14T02:33:28.217Z,100767.63
2023-05-14T02:36:30.806Z,100775.03
2023-05-14T02:39:33.485Z,100757.00
2023-05-14T02:42:35.969Z,100755.19
2023-05-14T02:45:38.394Z,100770.00
2023-05-14T02:48:41.438Z,100738.94
2023-05-14T02:51:44.153Z,100752.94
2023-05-14T02:54:46.635Z,100755.53
2023-05-14T02:57:49.168Z,100765.72
2023-05-14T03:00:51.738Z,100769.94
2023-05-14T03:03:54.544Z,100752.88
2023-05-14T03:06:57.114Z,100768.16
2023-05-14T03:10:00.693Z,100767.56
2023-05-14T03:13:03.382Z,100760.34
2023-05-14T03:16:06.857Z,100754.97
2023-05-14T03:19:09.954Z,100765.16
2023-05-14T03:22:12.669Z,100742.94
2023-05-14T03:25:15.227Z,100731.13
2023-05-14T03:28:18.343Z,100761.19
2023-05-14T03:31:20.869Z,100758.78
2023-05-14T03:34:23.510Z,100759.19
2023-05-14T03:37:25.951Z,100757.81
2023-05-14T03:40:28.390Z,100765.44
2023-05-14T03:43:30.806Z,100753.00
2023-05-14T03:46:33.315Z,100754.00
2023-05-14T03:49:35.814Z,100761.22
2023-05-14T03:52:38.631Z,100756.22
2023-05-14T03:55:41.075Z,100747.81
2023-05-14T03:58:46.812Z,100773.47
2023-05-14T04:01:50.618Z,100771.84
2023-05-14T04:04:53.087Z,100779.50
2023-05-14T04:07:56.240Z,100749.66
2023-05-14T04:10:58.698Z,100758.50
2023-05-14T04:14:01.219Z,100746.47
2023-05-14T04:17:04.644Z,100761.88
2023-05-14T04:20:07.858Z,100758.31
2023-05-14T04:23:10.427Z,100761.09
2023-05-14T04:26:12.851Z,100760.50
2023-05-14T04:29:15.336Z,100764.69
2023-05-14T04:32:18.256Z,100746.66
2023-05-14T04:35:23.319Z,100750.28
2023-05-14T04:38:27.315Z,100737.47
2023-05-14T04:41:29.825Z,100742.25
2023-05-14T04:44:34.143Z,100728.22
2023-05-14T04:47:36.733Z,100736.25
2023-05-14T04:50:39.307Z,100742.66
2023-05-14T04:53:41.694Z,100748.28
2023-05-14T04:56:44.190Z,100732.25
2023-05-14T04:59:46.752Z,100735.06
2023-05-14T05:02:49.351Z,100729.84
2023-05-14T05:05:52.121Z,100744.25
2023-05-14T05:08:55.253Z,100724.22
2023-05-14T05:11:57.872Z,100726.22
2023-05-14T05:15:00.358Z,100734.03
2023-05-14T05:18:02.958Z,100739.63
2023-05-14T05:21:06.160Z,100725.38
2023-05-14T05:24:08.942Z,100719.00
2023-05-14T05:27:11.637Z,100723.59
2023-05-14T05:30:14.449Z,100712.97
2023-05-14T05:33:16.964Z,100710.94
2023-05-14T05:36:20.399Z,100712.97
2023-05-14T05:39:22.922Z,100722.41
2023-05-14T05:42:26.104Z,100738.03
2023-05-14T05:45:28.538Z,100727.41
2023-05-14T05:48:31.103Z,100729.22
2023-05-14T05:51:33.627Z,100725.97
2023-05-14T05:54:36.190Z,100726.75
2023-05-14T05:57:38.739Z,100709.13
2023-05-14T06:00:41.793Z,100710.66
2023-05-14T06:03:45.807Z,100720.31
2023-05-14T06:06:50.158Z,100721.84
2023-05-14T06:09:52.537Z,100707.63
2023-05-14T06:12:54.912Z,100714.25
2023-05-14T06:15:57.283Z,100734.47
2023-05-14T06:18:59.807Z,100720.63
2023-05-14T06:22:02.922Z,100720.84
2023-05-14T06:25:05.683Z,100712.63
2023-05-14T06:28:08.436Z,100716.03
2023-05-14T06:31:10.916Z,100726.28
2023-05-14T06:34:13.462Z,100722.94
2023-05-14T06:37:15.968Z,100723.72
2023-05-14T06:40:18.922Z,100730.75
2023-05-14T06:43:21.428Z,100720.13
2023-05-14T06:46:23.843Z,100717.69
2023-05-14T06:49:26.437Z,100713.19
2023-05-14T06:52:28.913Z,100731.00
2023-05-14T06:55:31.365Z,100716.97
2023-05-14T06:58:33.893Z,100713.06
2023-05-14T07:01:36.366Z,100696.31
2023-05-14T07:04:38.839Z,100704.69
2023-05-14T07:07:41.361Z,100704.13
2023-05-14T07:10:43.820Z,100698.66
2023-05-14T07:13:46.188Z,100703.84
2023-05-14T07:16:48.806Z,100683.16
2023-05-14T07:19:51.477Z,100699.16
2023-05-14T07:22:54.107Z,100686.34
2023-05-14T07:25:56.604Z,100689.66
2023-05-14T07:28:59.050Z,100667.53
2023-05-14T07:32:02.075Z,100676.47
2023-05-14T07:35:04.876Z,100679.63
2023-05-14T07:38:07.279Z,100658.75
2023-05-14T07:41:11.447Z,100657.75
2023-05-14T07:44:13.934Z,100652.81
2023-05-14T07:47:16.495Z,100660.63
2023-05-14T07:50:19.178Z,100656.41
2023-05-14T07:53:23.509Z,100663.94
2023-05-14T07:56:26.116Z,100669.00
2023-05-14T07:59:28.524Z,100666.78
2023-05-14T08:02:31.160Z,100661.31
2023-05-14T08:05:33.718Z,100647.63
2023-05-14T08:08:36.381Z,100647.75
2023-05-14T08:11:39.276Z,100641.28
2023-05-14T08:14:41.731Z,100634.22
2023-05-14T08:17:44.203Z,100642.72
2023-05-14T08:20:47.076Z,100628.53
2023-05-14T08:23:49.495Z,100630.44
2023-05-14T08:26:52.453Z,100615.75
2023-05-14T08:29:54.925Z,100619.84
2023-05-14T08:32:58.656Z,100631.03
2023-05-14T08:36:01.653Z,100622.34
2023-05-14T08:39:04.027Z,100636.84
2023-05-14T08:42:08.321Z,100611.88
2023-05-14T08:45:34.096Z,100615.31
2023-05-14T08:48:37.868Z,100608.91
2023-05-14T08:51:40.921Z,100597.25
2023-05-14T08:54:44.189Z,100613.22
2023-05-14T08:57:46.664Z,100603.72
2023-05-14T09:00:49.251Z,100605.34
2023-05-14T09:03:53.983Z,100594.88
2023-05-14T09:06:56.490Z,100592.25
2023-05-14T09:09:59.514Z,100593.81
2023-05-14T09:13:02.005Z,100590.13
2023-05-14T09:16:04.714Z,100598.88
2023-05-14T09:19:07.342Z,100585.09
2023-05-14T09:22:12.331Z,100589.91
2023-05-14T09:25:15.082Z,100574.91
2023-05-14T09:28:19.003Z,100579.75
2023-05-14T09:31:22.767Z,100570.00
2023-05-14T09:34:32.608Z,100580.56
2023-05-14T09:37:36.781Z,100577.03
2023-05-14T09:40:39.339Z,100552.22
2023-05-14T09:43:42.694Z,100554.03
2023-05-14T09:46:48.978Z,100533.88
2023-05-14T09:49:52.369Z,100546.53
2023-05-14T09:52:56.180Z,100565.22
2023-05-14T09:55:58.847Z,100563.94
2023-05-14T09:59:01.316Z,100540.47
2023-05-14T10:02:05.826Z,100547.53
2023-05-14T10:05:09.012Z,100554.59
2023-05-14T10:08:24.680Z,100541.41
2023-05-14T10:11:32.790Z,100534.81
2023-05-14T10:14:47.312Z,100516.72
2023-05-14T10:17:56.156Z,100519.53
2023-05-14T10:21:06.370Z,100525.00
2023-05-14T10:24:10.020Z,100497.59
2023-05-14T10:27:12.638Z,100489.88
2023-05-14T10:30:15.278Z,100473.94
2023-05-14T10:33:18.848Z,100472.22
2023-05-14T10:36:22.382Z,100459.56
2023-05-14T10:39:40.832Z,100463.72
2023-05-14T10:42:43.816Z,100473.38
2023-05-14T10:45:46.296Z,100478.16
2023-05-14T10:48:49.878Z,100495.88
2023-05-14T10:51:53.767Z,100480.75
2023-05-14T10:55:03.170Z,100485.22
2023-05-14T10:58:06.420Z,100475.53
2023-05-14T11:01:12.841Z,100462.41
2023-05-14T11:04:19.732Z,100453.34
2023-05-14T11:07:25.437Z,100469.03
2023-05-14T11:10:30.105Z,100466.78
2023-05-14T11:13:34.852Z,100470.50
2023-05-14T11:16:37.854Z,100469.94
2023-05-14T11:19:43.769Z,100469.28
2023-05-14T11:22:48.128Z,100457.41
2023-05-14T11:25:52.921Z,100447.88
2023-05-14T11:28:55.756Z,100450.84
2023-05-14T11:31:58.289Z,100447.53
2023-05-14T11:35:00.843Z,100455.72
2023-05-14T11:38:03.367Z,100445.03
2023-05-14T11:41:06.359Z,100443.53
2023-05-14T11:44:10.864Z,100455.59
2023-05-14T11:47:13.331Z,100441.13
2023-05-14T11:50:16.655Z,100449.81
2023-05-14T11:53:20.156Z,100448.69
2023-05-14T11:56:22.633Z,100445.25
2023-05-14T11:59:26.092Z,100423.16
2023-05-14T12:02:29.557Z,100434.22
2023-05-14T12:05:32.245Z,100428.41
2023-05-14T12:08:34.652Z,100443.44
2023-05-14T12:11:37.765Z,100421.13
2023-05-14T12:14:42.762Z,100427.72
2023-05-14T12:17:54.160Z,100422.38
2023-05-14T12:21:01.844Z,100411.56
2023-05-14T12:24:04.606Z,100406.53
2023-05-14T12:27:09.797Z,100404.59
2023-05-14T12:30:21.207Z,100395.06
2023-05-14T12:33:26.580Z,100405.69
2023-05-14T12:36:29.498Z,100400.72
2023-05-14T12:39:33.949Z,100387.47
2023-05-14T12:42:36.786Z,100402.88
2023-05-14T12:45:39.258Z,100387.50
2023-05-14T12:48:41.724Z,100387.75
2023-05-14T12:51:44.234Z,100385.03
2023-05-14T12:54:46.977Z,100376.41
2023-05-14T12:57:49.511Z,100372.00
2023-05-14T13:00:52.192Z,100360.97
2023-05-14T13:03:55.770Z,100366.78
2023-05-14T13:06:58.335Z,100358.47
2023-05-14T13:10:00.778Z,100343.00
2023-05-14T13:13:03.319Z,100330.97
2023-05-14T13:16:06.276Z,100330.50
2023-05-14T13:19:08.816Z,100343.81
2023-05-14T13:22:11.199Z,100326.44
2023-05-14T13:25:13.667Z,100322.41
2023-05-14T13:28:16.168Z,100336.84
2023-05-14T13:31:18.651Z,100325.34
2023-05-14T13:34:21.257Z,100318.38
2023-05-14T13:37:25.822Z,100319.25
2023-05-14T13:40:28.364Z,100303.94
2023-05-14T13:43:35.173Z,100314.19
2023-05-14T13:46:37.800Z,100280.41
2023-05-14T13:49:40.754Z,100287.25
2023-05-14T13:52:43.188Z,100284.25
2023-05-14T13:55:46.718Z,100271.38
2023-05-14T13:58:51.588Z,100288.31
2023-05-14T14:01:54.385Z,100271.50
2023-05-14T14:04:56.851Z,100268.88
2023-05-14T14:08:04.509Z,100284.25
2023-05-14T14:11:22.141Z,100264.22
2023-05-14T14:14:24.692Z,100265.47
2023-05-14T14:17:27.230Z,100259.78
2023-05-14T14:20:31.142Z,100257.88
2023-05-14T14:23:33.659Z,100267.66
2023-05-14T14:26:36.168Z,100262.06
2023-05-14T14:29:38.757Z,100269.09
2023-05-14T14:32:48.539Z,100260.34
2023-05-14T14:35:51.722Z,100259.19
2023-05-14T14:38:54.864Z,100262.59
2023-05-14T14:41:57.414Z,100249.84
2023-05-14T14:44:59.913Z,100256.22
2023-05-14T14:48:34.389Z,100252.25
2023-05-14T14:51:36.837Z,100240.59
2023-05-14T14:54:39.256Z,100233.34
2023-05-14T14:57:41.817Z,100248.03
2023-05-14T15:00:45.648Z,100251.34
2023-05-14T15:03:48.516Z,100230.63
2023-05-14T15:06:51.421Z,100221.25
2023-05-14T15:09:53.896Z,100215.22
2023-05-14T15:12:59.884Z,100209.88
2023-05-14T15:16:02.389Z,100191.13
2023-05-14T15:19:04.884Z,100215.81
2023-05-14T15:22:07.485Z,100207.25
2023-05-14T15:25:10.178Z,100198.06
2023-05-14T15:28:12.611Z,100186.69
2023-05-14T15:31:15.786Z,100185.22
2023-05-14T15:34:18.271Z,100191.00
2023-05-14T15:37:20.761Z,100200.31
2023-05-14T15:40:23.464Z,100182.44
2023-05-14T15:43:26.462Z,100194.81
2023-05-14T15:46:29.055Z,100199.03
2023-05-14T15:49:31.588Z,100192.13
2023-05-14T15:52:35.066Z,100182.53
2023-05-14T15:55:37.550Z,100177.31
2023-05-14T15:58:40.043Z,100180.72
2023-05-14T16:01:42.516Z,100179.72
2023-05-14T16:04:49.567Z,100160.16
2023-05-14T16:07:52.563Z,100149.03
2023-05-14T16:10:55.018Z,100128.22
2023-05-14T16:13:58.486Z,100135.06
2023-05-14T16:17:01.869Z,100130.25
2023-05-14T16:20:05.213Z,100108.41
2023-05-14T16:23:09.007Z,100134.97
2023-05-14T16:26:11.712Z,100136.13
2023-05-14T16:29:14.280Z,100133.59
2023-05-14T16:32:16.945Z,100134.25
2023-05-14T16:35:19.521Z,100141.66
2023-05-14T16:38:22.002Z,100133.28
2023-05-14T16:41:24.502Z,100143.00
2023-05-14T16:44:26.993Z,100142.19
2023-05-14T16:47:29.594Z,100154.47
2023-05-14T16:50:32.096Z,100138.94
2023-05-14T16:53:34.567Z,100123.06
2023-05-14T16:56:37.069Z,100096.03
2023-05-14T16:59:39.482Z,100094.47
2023-05-14T17:02:42.373Z,100094.28
2023-05-14T17:05:44.877Z,100099.72
2023-05-14T17:08:47.715Z,100083.03
2023-05-14T17:11:50.874Z,100099.41
2023-05-14T17:14:53.363Z,100099.53
2023-05-14T17:17:56.073Z,100079.41
2023-05-14T17:20:58.758Z,100078.53
2023-05-14T17:24:01.126Z,100085.31
2023-05-14T17:27:03.837Z,100071.44
2023-05-14T17:30:07.025Z,100076.66
2023-05-14T17:33:09.783Z,100052.50
2023-05-14T17:36:12.500Z,100076.56
2023-05-14T17:39:15.102Z,100078.94
2023-05-14T17:42:18.003Z,100061.59
2023-05-14T17:45:21.030Z,100055.91
2023-05-14T17:48:24.130Z,100061.25
2023-05-14T17:51:26.951Z,100046.72
2023-05-14T17:54:29.921Z,100058.72
2023-05-14T17:57:32.501Z,100057.03
2023-05-14T18:00:35.277Z,100050.31
2023-05-14T18:03:38.503Z,100039.09
2023-05-14T18:06:41.448Z,100020.25
2023-05-14T18:09:44.390Z,100024.25
2023-05-14T18:12:47.327Z,100008.69
2023-05-14T18:15:54.168Z,100020.28
2023-05-14T18:18:57.884Z,100033.22
2023-05-14T18:22:00.523Z,100016.41
2023-05-14T18:25:04.011Z,100014.59
2023-05-14T18:28:09.421Z,100024.72
2023-05-14T18:31:12.032Z,100017.44
2023-05-14T18:34:14.816Z,100016.88
2023-05-14T18:37:17.568Z,100022.66
2023-05-14T18:40:20.281Z,100033.78
2023-05-14T18:43:22.813Z,100039.69
2023-05-14T18:46:25.921Z,100030.84
2023-05-14T18:49:28.510Z,100043.91
2023-05-14T18:52:32.433Z,100042.28
2023-05-14T18:55:37.108Z,100028.13
2023-05-14T18:58:39.938Z,100039.78
2023-05-14T19:01:42.473Z,100041.53
2023-05-14T19:04:52.398Z,100051.63
2023-05-14T19:07:56.856Z,100029.94
2023-05-14T19:10:59.723Z,100041.28
2023-05-14T19:14:03.143Z,100038.00
2023-05-14T19:17:06.155Z,100027.91
2023-05-14T19:20:09.436Z,99995.13
2023-05-14T19:23:12.106Z,100016.00
2023-05-14T19:26:16.054Z,100013.19
2023-05-14T19:29:18.572Z,100007.38
2023-05-14T19:32:21.037Z,100013.41
2023-05-14T19:35:23.659Z,100008.28
2023-05-14T19:38:26.498Z,100005.09
2023-05-14T19:41:29.210Z,100020.66
2023-05-14T19:44:32.016Z,100022.00
2023-05-14T19:47:34.941Z,100014.53
2023-05-14T19:50:37.364Z,100011.91
2023-05-14T19:53:40.012Z,99993.28
2023-05-14T19:56:42.446Z,99991.72
2023-05-14T19:59:45.298Z,99997.84
2023-05-14T20:02:48.036Z,99993.28
2023-05-14T20:05:51.401Z,100007.38
2023-05-14T20:08:55.216Z,99999.56
2023-05-14T20:11:57.867Z,99982.41
2023-05-14T20:15:00.538Z,99985.94
2023-05-14T20:18:03.120Z,99975.72
2023-05-14T20:21:05.669Z,99955.19
2023-05-14T20:24:08.270Z,99954.41
2023-05-14T20:27:11.925Z,99973.00
2023-05-14T20:30:14.551Z,99969.28
2023-05-14T20:33:17.459Z,99972.78
2023-05-14T20:36:20.240Z,99951.22
2023-05-14T20:39:22.686Z,99939.19
2023-05-14T20:42:25.423Z,99956.78
2023-05-14T20:45:27.979Z,99952.13
2023-05-14T20:48:30.687Z,99955.19
2023-05-14T20:51:33.336Z,99932.94
2023-05-14T20:54:35.737Z,99955.66
2023-05-14T20:57:38.254Z,99960.19
2023-05-14T21:00:40.700Z,99945.09
2023-05-14T21:03:44.110Z,99943.50
2023-05-14T21:06:46.921Z,99946.44
2023-05-14T21:09:52.597Z,99925.47
2023-05-14T21:12:55.261Z,99928.88
2023-05-14T21:15:57.829Z,99926.75
2023-05-14T21:19:00.526Z,99907.66
2023-05-14T21:22:03.092Z,99927.19
2023-05-14T21:25:05.924Z,99910.41
2023-05-14T21:28:09.747Z,99911.97
2023-05-14T21:31:12.178Z,99913.69
2023-05-14T21:34:14.886Z,99914.03
2023-05-14T21:37:17.376Z,99904.50
2023-05-14T21:40:19.829Z,99902.22
2023-05-14T21:43:22.256Z,99896.44
2023-05-14T21:46:25.746Z,99895.31
2023-05-14T21:49:28.218Z,99885.25
2023-05-14T21:52:30.769Z,99861.44
2023-05-14T21:55:33.638Z,99853.13
2023-05-14T21:58:36.505Z,99835.81
2023-05-14T22:01:55.524Z,99827.97
2023-05-14T22:05:01.506Z,99834.31
2023-05-14T22:08:04.280Z,99850.06
2023-05-14T22:11:06.681Z,99843.63
2023-05-14T22:14:09.142Z,99832.50
2023-05-14T22:17:12.750Z,99822.88
2023-05-14T22:20:15.148Z,99823.53
2023-05-14T22:23:17.523Z,99843.75
2023-05-14T22:26:21.588Z,99826.16
2023-05-14T22:29:23.996Z,99838.41
2023-05-14T22:32:26.729Z,99850.75
2023-05-14T22:35:29.115Z,99830.34
2023-05-14T22:38:31.788Z,99845.88
2023-05-14T22:41:34.193Z,99841.66
2023-05-14T22:44:37.137Z,99847.13
2023-05-14T22:47:39.567Z,99847.13
2023-05-14T22:50:42.065Z,99840.31
2023-05-14T22:53:44.541Z,99817.78
2023-05-14T22:56:47.459Z,99830.69
2023-05-14T22:59:49.875Z,99822.41
2023-05-14T23:02:52.359Z,99827.72
2023-05-14T23:05:54.863Z,99820.25
2023-05-14T23:08:57.691Z,99821.84
2023-05-14T23:12:00.237Z,99830.34
2023-05-14T23:15:02.979Z,99828.31
2023-05-14T23:18:05.737Z,99839.88
2023-05-14T23:21:08.275Z,99841.91
2023-05-14T23:24:10.697Z,99817.66
2023-05-14T23:27:13.133Z,99817.66
2023-05-14T23:30:15.737Z,99824.00
2023-05-14T23:33:18.929Z,99827.19
2023-05-14T23:36:21.360Z,99818.31
2023-05-14T23:39:23.952Z,99805.84
2023-05-14T23:42:26.352Z,99799.53
2023-05-14T23:45:29.469Z,99783.53
2023-05-14T23:48:32.253Z,99790.09
2023-05-14T23:51:34.707Z,99789.84
2023-05-14T23:54:37.204Z,99773.56
2023-05-14T23:57:40.026Z,99754.41
